This is the latest recevied weather packets stored in our database for station/object BMCB-1. If no packets are shown the sender has not sent any weather packets the latest 10 day(s).
| Time | Temp. | Humidity | Pressure | Rain* | Wind** | Luminosity | Snow |
|---|---|---|---|---|---|---|---|
| 1777410044 | 13.33° C | 52% | 1024.4 hPa | 0 mm | - | 0 W/m² | - |
| 1777407049 | 14.44° C | 49% | 1024 hPa | 0 mm | - | 0 W/m² | - |
| 1777406448 | 14.44° C | 48% | 1023.9 hPa | 0 mm | - | 0 W/m² | - |
| 1777403439 | 15° C | 49% | 1023.1 hPa | 0 mm | - | 0 W/m² | - |
| 1777398044 | 17.78° C | 43% | 1021.9 hPa | 0 mm | - | 76 W/m² | - |
| 1777396245 | 18.33° C | 42% | 1021.7 hPa | 0 mm | - | 48 W/m² | - |
| 1777395044 | 18.33° C | 42% | 1021.5 hPa | 0 mm | - | 56 W/m² | - |
| 1777385444 | 18.33° C | 46% | 1021.8 hPa | 0 mm | - | 616 W/m² | - |
| 1777381242 | 17.22° C | 49% | 1022.5 hPa | 0 mm | - | 716 W/m² | - |
| 1777379439 | 16.11° C | 49% | 1022.8 hPa | 0 mm | - | 348 W/m² | - |
| 1777375241 | 16.67° C | 44% | 1022.8 hPa | 0 mm | - | 668 W/m² | - |
| 1777372841 | 15.56° C | 54% | 1023.2 hPa | 0 mm | - | 744 W/m² | - |
| 1777369842 | 13.89° C | 61% | 1023.7 hPa | 0 mm | - | 670 W/m² | - |
| 1777363242 | 10° C | 69% | 1024.2 hPa | 0 mm | - | 282 W/m² | - |
| 1777354242 | 6.67° C | 74% | 1024.1 hPa | 0 mm | - | 44 W/m² | - |
| 1777353042 | 6.67° C | 74% | 1023.9 hPa | 0 mm | - | 30 W/m² | - |
| 1777350642 | 7.22° C | 71% | 1023.8 hPa | 0 mm | - | 2 W/m² | - |
| 1777348841 | 7.78° C | 69% | 1023.9 hPa | 0 mm | - | 0 W/m² | - |
| 1777332642 | 9.44° C | 61% | 1024.8 hPa | 0 mm | - | 0 W/m² | - |
| 1777325449 | 8.89° C | 61% | 1024.7 hPa | 0 mm | - | 0 W/m² | - |
| 1777324848 | 8.33° C | 65% | 1024.8 hPa | 0 mm | - | 0 W/m² | - |
| 1777323047 | 6.67° C | 79% | 1025.3 hPa | 0 mm | - | 0 W/m² | - |
| 1777313445 | 15° C | 42% | 1024.4 hPa | 0 mm | - | 52 W/m² | - |
| 1777311643 | 16.11° C | 39% | 1024.3 hPa | 0 mm | - | 90 W/m² | - |
| 1777309844 | 16.67° C | 37% | 1024.3 hPa | 0 mm | - | 114 W/m² | - |
* Rain latest hour (hover to see other rain measurements)
** Current wind speed in m/s (hover to see current wind gust speed)